Time;durP1;ratioP1;P1;durP2;ratioP2;P2;SDS_P1;SDS_P2;PMS_P1;PMS_P2;Temp;Humidity;BMP_temperature;BMP_pressure;BME280_temperature;BME280_humidity;BME280_pressure;Samples;Min_cycle;Max_cycle;Signal;HPM_P1;HPM_P2
2023/01/26 00:04:46;;;;;;;101.83;46.67;;;-0.80;99.90;;;;;;2614228;54;20956;-76
2023/01/26 00:10:38;;;;;;;88.67;36.13;;;-0.90;99.90;;;;;;2614969;54;20953;-76
2023/01/26 00:16:26;;;;;;;111.03;48.33;;;-0.90;99.90;;;;;;2612792;54;20402;-76
2023/01/26 00:22:13;;;;;;;108.17;48.70;;;-0.90;99.90;;;;;;2614569;54;20365;-77
2023/01/26 00:28:00;;;;;;;105.50;47.40;;;-0.90;99.90;;;;;;2614657;54;20731;-76
2023/01/26 00:33:47;;;;;;;93.57;45.97;;;-0.90;99.90;;;;;;2611670;54;20728;-76
2023/01/26 00:39:35;;;;;;;76.80;38.77;;;-0.80;99.90;;;;;;2615814;54;20174;-76
2023/01/26 00:45:23;;;;;;;89.87;42.60;;;-0.90;99.90;;;;;;2616091;39;20524;-77
2023/01/26 00:51:11;;;;;;;90.50;40.30;;;-1.00;99.90;;;;;;2615686;54;20134;-75
2023/01/26 00:56:59;;;;;;;89.67;40.87;;;-1.00;99.90;;;;;;2616281;54;20684;-75
2023/01/26 01:02:47;;;;;;;86.10;41.20;;;-1.00;99.90;;;;;;2613140;54;20431;-77
2023/01/26 01:06:03;;;;;;;118.87;45.57;;;-1.00;99.90;;;;;;2612898;54;20411;-76
2023/01/26 01:11:50;;;;;;;84.20;39.37;;;-1.00;99.90;;;;;;2616519;54;20433;-77
2023/01/26 01:17:38;;;;;;;78.23;37.73;;;-1.00;99.90;;;;;;2614311;54;20166;-76
2023/01/26 01:23:28;;;;;;;92.73;39.67;;;-1.00;99.90;;;;;;2614903;54;20398;-77
2023/01/26 01:29:15;;;;;;;94.30;40.83;;;-1.00;99.90;;;;;;2616084;54;20419;-77
2023/01/26 01:35:03;;;;;;;86.70;40.17;;;-0.90;99.90;;;;;;2617020;54;20142;-78
2023/01/26 01:40:52;;;;;;;97.40;39.13;;;-0.90;99.90;;;;;;2616490;54;20436;-77
2023/01/26 01:46:44;;;;;;;96.57;41.13;;;-0.90;99.90;;;;;;2614862;39;20743;-76
2023/01/26 01:52:32;;;;;;;97.53;41.67;;;-0.80;99.90;;;;;;2616417;54;20535;-76
2023/01/26 01:58:21;;;;;;;108.10;39.50;;;-0.80;99.90;;;;;;2615712;54;20147;-76
2023/01/26 02:01:31;;;;;;;105.53;42.47;;;-0.70;99.90;;;;;;2615793;54;20427;-75
2023/01/26 02:04:00;;;;;;;100.10;40.73;;;-0.80;99.90;;;;;;2614856;47;20950;-75
2023/01/26 02:15:58;;;;;;;90.43;39.80;;;-0.90;99.90;;;;;;2616376;54;21618;-76
2023/01/26 02:21:49;;;;;;;106.33;41.60;;;-0.80;99.90;;;;;;2616512;54;20416;-76
2023/01/26 02:27:37;;;;;;;103.80;40.90;;;-0.80;99.90;;;;;;2616538;54;20395;-75
2023/01/26 02:33:27;;;;;;;102.30;42.50;;;-0.70;99.90;;;;;;2615340;54;20214;-76
2023/01/26 02:39:33;;;;;;;85.03;38.73;;;-0.80;99.90;;;;;;2616711;54;21016;-76
2023/01/26 02:45:23;;;;;;;82.80;35.30;;;-0.70;99.90;;;;;;2616454;54;21056;-74
2023/01/26 02:51:10;;;;;;;90.17;38.63;;;-0.70;99.90;;;;;;2616583;54;20371;-76
2023/01/26 02:56:58;;;;;;;89.40;40.10;;;-0.60;99.90;;;;;;2615984;54;20135;-76
2023/01/26 03:06:12;;;;;;;73.30;34.10;;;-0.60;99.90;;;;;;2616351;39;20885;-75
2023/01/26 03:12:00;;;;;;;101.23;43.70;;;-0.50;99.90;;;;;;2616268;54;20378;-76
2023/01/26 03:17:47;;;;;;;113.90;45.50;;;-0.60;99.90;;;;;;2614196;54;20502;-76
2023/01/26 03:29:42;;;;;;;123.77;45.67;;;-0.60;99.90;;;;;;2616069;54;20398;-75
2023/01/26 03:35:31;;;;;;;115.37;47.50;;;-0.60;99.90;;;;;;2613719;54;20422;-75
2023/01/26 03:59:37;;;;;;;111.00;43.13;;;-0.60;99.90;;;;;;2616091;39;21196;-75
2023/01/26 04:08:56;;;;;;;109.43;43.40;;;-0.60;99.90;;;;;;2616406;54;20410;-75
2023/01/26 04:26:56;;;;;;;114.10;45.53;;;-0.70;99.90;;;;;;2615589;54;20405;-74
2023/01/26 04:32:45;;;;;;;117.60;42.67;;;-0.70;99.90;;;;;;2616749;54;20656;-77
2023/01/26 04:38:32;;;;;;;89.50;37.00;;;-0.70;99.90;;;;;;2615832;54;20365;-75
2023/01/26 04:44:20;;;;;;;85.17;35.80;;;-0.70;99.90;;;;;;2617012;54;20182;-75
2023/01/26 04:50:08;;;;;;;101.80;40.47;;;-0.70;99.90;;;;;;2617334;54;20155;-76
2023/01/26 04:55:56;;;;;;;90.20;37.87;;;-0.60;99.90;;;;;;2616399;54;20394;-76
2023/01/26 05:01:44;;;;;;;106.63;40.10;;;-0.60;99.90;;;;;;2616250;54;20171;-77
2023/01/26 05:04:24;;;;;;;83.83;38.00;;;-0.70;99.90;;;;;;2615122;54;20407;-75
2023/01/26 05:06:49;;;;;;;92.90;32.97;;;-0.60;99.90;;;;;;2615910;54;20685;-75
2023/01/26 05:12:41;;;;;;;93.40;36.07;;;-0.60;99.90;;;;;;2616348;54;20255;-76
2023/01/26 05:18:29;;;;;;;97.90;37.10;;;-0.60;99.90;;;;;;2614751;54;21187;-76
2023/01/26 05:24:17;;;;;;;80.27;35.83;;;-0.60;99.90;;;;;;2617020;54;20391;-75
2023/01/26 05:30:05;;;;;;;95.83;38.23;;;-0.50;99.90;;;;;;2613855;54;20134;-78
2023/01/26 05:35:53;;;;;;;77.57;34.63;;;-0.50;99.90;;;;;;2616791;54;20383;-76
2023/01/26 05:41:40;;;;;;;80.80;34.00;;;-0.50;99.90;;;;;;2616382;54;20158;-76
2023/01/26 05:47:28;;;;;;;104.67;40.87;;;-0.50;99.90;;;;;;2614495;54;20133;-76
2023/01/26 05:53:15;;;;;;;87.07;36.10;;;-0.50;99.90;;;;;;2616059;54;20170;-75
2023/01/26 05:59:03;;;;;;;84.17;34.63;;;-0.40;99.90;;;;;;2616619;54;20165;-74
2023/01/26 06:08:57;;;;;;;77.70;33.87;;;-0.40;99.90;;;;;;2616170;54;20386;-76
2023/01/26 06:14:45;;;;;;;63.90;31.33;;;-0.40;99.90;;;;;;2615320;54;20432;-75
2023/01/26 06:20:32;;;;;;;77.50;29.90;;;-0.40;99.90;;;;;;2615112;54;20366;-76
2023/01/26 06:29:41;;;;;;;54.90;27.27;;;-0.40;99.90;;;;;;2613921;54;20399;-76
2023/01/26 06:35:28;;;;;;;57.30;29.00;;;-0.40;99.90;;;;;;2615486;54;20366;-76
2023/01/26 06:41:16;;;;;;;57.70;27.33;;;-0.30;99.90;;;;;;2614061;54;20139;-76
2023/01/26 06:47:04;;;;;;;67.93;29.07;;;-0.30;99.90;;;;;;2615496;54;20928;-75
2023/01/26 06:52:57;;;;;;;64.63;30.07;;;-0.30;99.90;;;;;;2615929;54;20407;-76
2023/01/26 06:58:45;;;;;;;57.93;28.37;;;-0.30;99.90;;;;;;2616744;54;20451;-75
2023/01/26 07:11:19;;;;;;;59.13;25.00;;;-0.20;99.90;;;;;;2615833;54;20419;-76
2023/01/26 07:17:06;;;;;;;52.73;27.07;;;-0.20;99.90;;;;;;2614452;54;20415;-76
2023/01/26 07:22:54;;;;;;;45.50;25.27;;;-0.20;99.90;;;;;;2613050;54;20157;-74
2023/01/26 07:28:42;;;;;;;59.47;28.80;;;-0.20;99.90;;;;;;2614538;54;20247;-74
2023/01/26 07:31:10;;;;;;;64.57;28.20;;;-0.20;99.90;;;;;;2614290;47;20424;-75
2023/01/26 07:33:35;;;;;;;64.73;28.57;;;-0.20;99.90;;;;;;2614432;54;20142;-76
2023/01/26 07:39:23;;;;;;;53.17;27.53;;;-0.10;99.90;;;;;;2612729;54;20227;-74
2023/01/26 07:45:16;;;;;;;60.20;30.53;;;-0.10;99.90;;;;;;2615634;54;20170;-75
2023/01/26 07:51:07;;;;;;;55.83;27.20;;;-0.10;99.90;;;;;;2615833;54;20676;-74
2023/01/26 07:56:55;;;;;;;55.13;26.23;;;0.00;99.90;;;;;;2615829;54;20415;-74
2023/01/26 08:02:43;;;;;;;66.77;28.50;;;0.10;99.90;;;;;;2613934;54;20239;-74
2023/01/26 08:18:46;;;;;;;59.20;26.43;;;0.00;99.90;;;;;;2613524;54;20415;-75
2023/01/26 08:24:33;;;;;;;61.27;26.30;;;0.20;99.90;;;;;;2615515;39;20842;-75
2023/01/26 08:30:20;;;;;;;64.83;27.10;;;0.30;99.90;;;;;;2614497;46;20166;-75
2023/01/26 08:36:14;;;;;;;59.47;29.87;;;0.30;99.90;;;;;;2613692;54;20163;-75
2023/01/26 08:42:01;;;;;;;64.33;29.97;;;0.20;99.90;;;;;;2614140;54;20463;-75
2023/01/26 08:45:04;;;;;;;75.90;33.87;;;0.30;99.90;;;;;;2615030;54;20913;-76
2023/01/26 08:47:29;;;;;;;86.50;31.60;;;0.30;99.90;;;;;;2614472;54;20179;-75
2023/01/26 08:53:17;;;;;;;76.23;35.70;;;0.30;99.90;;;;;;2615875;54;20685;-75
2023/01/26 08:59:04;;;;;;;76.20;32.50;;;0.40;99.90;;;;;;2614031;54;20170;-75
2023/01/26 09:04:52;;;;;;;74.37;33.77;;;0.50;99.90;;;;;;2613662;54;20154;-76
2023/01/26 09:07:29;;;;;;;77.83;36.73;;;0.30;99.90;;;;;;2613145;47;20403;-74
2023/01/26 09:09:55;;;;;;;81.73;37.47;;;0.50;99.90;;;;;;2613824;39;20564;-75
2023/01/26 09:15:43;;;;;;;84.53;33.90;;;0.40;99.90;;;;;;2613169;54;20398;-76
2023/01/26 09:21:31;;;;;;;76.37;32.80;;;0.50;99.90;;;;;;2615350;54;20154;-75
2023/01/26 09:23:56;;;;;;;90.90;39.80;;;0.50;99.90;;;;;;2613245;46;20402;-75
2023/01/26 09:26:22;;;;;;;86.97;36.63;;;0.50;99.90;;;;;;2613386;54;20717;-76
2023/01/26 09:32:09;;;;;;;81.47;38.30;;;0.60;99.90;;;;;;2615363;54;20165;-75
2023/01/26 09:37:57;;;;;;;71.73;33.10;;;0.70;99.90;;;;;;2613529;54;20130;-74
2023/01/26 09:56:42;;;;;;;77.03;32.10;;;0.70;99.90;;;;;;2615206;54;20399;-74
2023/01/26 10:19:01;;;;;;;55.30;25.23;;;0.80;99.90;;;;;;2616003;54;20366;-76
2023/01/26 10:24:51;;;;;;;65.73;29.37;;;0.80;99.90;;;;;;2616296;54;20422;-75
2023/01/26 10:30:41;;;;;;;68.30;32.90;;;0.80;99.90;;;;;;2616359;54;20379;-75
2023/01/26 10:36:30;;;;;;;46.63;23.40;;;0.90;99.90;;;;;;2615175;54;20406;-75
2023/01/26 10:42:19;;;;;;;48.87;23.70;;;0.90;99.90;;;;;;2616224;54;20470;-75
2023/01/26 10:48:17;;;;;;;47.53;22.33;;;1.00;99.90;;;;;;2616427;54;20130;-75
2023/01/26 10:54:25;;;;;;;46.07;25.07;;;1.10;99.90;;;;;;2615618;54;20391;-73
2023/01/26 11:00:32;;;;;;;34.83;19.80;;;1.00;99.90;;;;;;2614527;54;20949;-75
2023/01/26 11:06:19;;;;;;;37.17;20.30;;;1.10;99.90;;;;;;2615976;54;20405;-75
2023/01/26 11:32:32;;;;;;;32.70;18.13;;;1.10;99.90;;;;;;2614335;54;20474;-76
2023/01/26 11:38:28;;;;;;;27.40;16.87;;;1.20;99.90;;;;;;2615998;54;20400;-75
2023/01/26 12:03:51;;;;;;;26.77;17.33;;;1.30;99.90;;;;;;2614270;54;21316;-75
2023/01/26 12:26:12;;;;;;;22.30;15.23;;;1.40;99.90;;;;;;2614337;54;20362;-76
2023/01/26 12:45:00;;;;;;;19.80;12.87;;;1.50;99.90;;;;;;2615707;54;20381;-77
2023/01/26 12:57:10;;;;;;;21.40;12.00;;;1.60;99.90;;;;;;2614924;54;20369;-76
2023/01/26 13:13:25;;;;;;;23.83;14.50;;;1.50;99.90;;;;;;2615778;54;20491;-76
2023/01/26 13:32:46;;;;;;;22.90;16.70;;;1.70;99.90;;;;;;2616523;54;20917;-76
2023/01/26 13:51:33;;;;;;;38.67;23.10;;;1.70;99.90;;;;;;2616445;54;20372;-74
2023/01/26 13:57:27;;;;;;;35.70;19.40;;;1.90;99.90;;;;;;2616663;54;20395;-76
2023/01/26 14:03:21;;;;;;;33.30;17.77;;;1.90;99.90;;;;;;2616793;54;20535;-76
2023/01/26 14:12:57;;;;;;;38.13;22.00;;;2.00;99.90;;;;;;2616409;54;20952;-75
2023/01/26 14:18:48;;;;;;;54.40;22.93;;;2.00;99.90;;;;;;2616079;54;21029;-76
2023/01/26 14:24:41;;;;;;;42.27;20.50;;;2.00;99.90;;;;;;2616183;54;20383;-77
2023/01/26 14:30:33;;;;;;;48.20;22.60;;;2.00;99.90;;;;;;2616805;54;20411;-75
2023/01/26 14:36:22;;;;;;;62.00;25.37;;;2.10;99.90;;;;;;2616509;54;20402;-76
2023/01/26 14:42:16;;;;;;;59.67;31.40;;;2.10;99.90;;;;;;2616324;54;20377;-78
2023/01/26 14:45:19;;;;;;;52.70;27.27;;;2.20;99.90;;;;;;2616395;54;20398;-77
2023/01/26 14:47:44;;;;;;;50.77;24.20;;;2.30;99.90;;;;;;2616531;54;20407;-77
2023/01/26 14:53:32;;;;;;;48.73;25.10;;;2.40;99.90;;;;;;2616499;54;20130;-75
2023/01/26 14:55:58;;;;;;;50.43;26.97;;;2.40;99.90;;;;;;2615641;46;20406;-76
2023/01/26 14:58:31;;;;;;;48.27;25.63;;;2.40;99.90;;;;;;2616345;54;20989;-76
2023/01/26 15:17:40;;;;;;;47.77;23.50;;;2.60;99.90;;;;;;2614853;39;20564;-77
2023/01/26 15:23:33;;;;;;;64.97;27.93;;;2.60;99.90;;;;;;2614885;54;20959;-73
2023/01/26 15:29:31;;;;;;;58.63;26.60;;;2.70;99.90;;;;;;2614777;54;21276;-75
2023/01/26 15:35:20;;;;;;;50.90;24.50;;;2.80;99.90;;;;;;2613560;54;20412;-75
2023/01/26 15:41:09;;;;;;;51.47;25.50;;;2.70;99.90;;;;;;2612602;54;20394;-76
2023/01/26 15:50:18;;;;;;;64.77;29.50;;;2.80;99.90;;;;;;2612082;54;20387;-75
2023/01/26 15:56:10;;;;;;;62.60;30.50;;;2.90;99.90;;;;;;2612628;54;20301;-74
2023/01/26 16:01:57;;;;;;;57.50;32.10;;;2.80;99.90;;;;;;2612370;54;20577;-74
2023/01/26 16:07:46;;;;;;;58.87;32.70;;;2.80;99.90;;;;;;2615453;54;20134;-74
2023/01/26 16:13:35;;;;;;;42.57;25.67;;;2.80;99.90;;;;;;2613975;54;20425;-74
2023/01/26 16:22:54;;;;;;;46.57;23.23;;;2.70;99.90;;;;;;2613629;54;20405;-76
2023/01/26 16:28:42;;;;;;;49.57;23.40;;;2.60;99.90;;;;;;2611546;54;20134;-77
2023/01/26 16:34:30;;;;;;;71.50;32.80;;;2.70;99.90;;;;;;2612755;54;20933;-75
2023/01/26 16:40:18;;;;;;;58.73;25.57;;;2.80;99.90;;;;;;2612425;54;20137;-75
2023/01/26 16:46:05;;;;;;;62.53;37.03;;;2.80;99.90;;;;;;2611989;54;20412;-74
2023/01/26 16:51:52;;;;;;;67.93;31.90;;;2.90;99.90;;;;;;2614997;54;20126;-75
2023/01/26 16:57:41;;;;;;;57.03;30.77;;;2.90;99.90;;;;;;2615037;54;20195;-76
2023/01/26 17:03:28;;;;;;;58.03;30.73;;;2.90;99.90;;;;;;2616193;54;20912;-75
2023/01/26 17:09:16;;;;;;;80.07;35.03;;;3.00;99.90;;;;;;2616209;47;20130;-75
2023/01/26 17:15:20;;;;;;;64.77;29.80;;;2.90;99.90;;;;;;2615072;54;20266;-75
2023/01/26 17:21:07;;;;;;;113.43;54.80;;;2.80;99.90;;;;;;2616434;54;20114;-76
2023/01/26 17:26:55;;;;;;;72.53;40.30;;;2.90;99.90;;;;;;2616781;54;20379;-75
2023/01/26 17:32:43;;;;;;;60.77;30.50;;;2.90;99.90;;;;;;2616598;54;21118;-75
2023/01/26 17:38:31;;;;;;;80.27;37.07;;;2.90;99.90;;;;;;2616609;54;20119;-76
2023/01/26 17:44:19;;;;;;;260.90;126.63;;;2.90;99.90;;;;;;2616237;54;20370;-75
2023/01/26 17:50:07;;;;;;;62.20;32.03;;;2.90;99.90;;;;;;2615900;54;20370;-76
2023/01/26 17:55:55;;;;;;;66.30;33.00;;;3.00;99.90;;;;;;2615899;54;20551;-74
2023/01/26 18:01:43;;;;;;;47.43;29.63;;;3.00;99.90;;;;;;2616483;54;20127;-75
2023/01/26 18:07:30;;;;;;;68.90;31.90;;;3.10;99.90;;;;;;2616183;54;20122;-75
2023/01/26 18:16:49;;;;;;;55.20;29.60;;;3.00;99.90;;;;;;2615839;54;20410;-74
2023/01/26 18:22:37;;;;;;;67.83;32.30;;;3.10;99.90;;;;;;2616098;54;20372;-76
2023/01/26 18:28:25;;;;;;;79.07;39.00;;;3.20;99.90;;;;;;2616476;54;20131;-74
2023/01/26 18:34:12;;;;;;;58.70;32.57;;;3.30;99.90;;;;;;2614608;54;20173;-75
2023/01/26 18:40:03;;;;;;;70.33;38.17;;;3.40;99.90;;;;;;2616025;54;20126;-75
2023/01/26 18:45:50;;;;;;;73.37;36.70;;;3.40;99.90;;;;;;2616185;54;20402;-76
2023/01/26 18:51:38;;;;;;;71.10;37.30;;;3.30;99.90;;;;;;2616324;54;20115;-75
2023/01/26 18:57:26;;;;;;;84.83;40.83;;;3.40;99.90;;;;;;2616278;54;20147;-74
2023/01/26 19:03:16;;;;;;;66.67;36.37;;;3.30;99.90;;;;;;2615585;54;20135;-75
2023/01/26 19:09:05;;;;;;;69.93;32.60;;;3.30;99.90;;;;;;2616294;54;20407;-76
2023/01/26 19:12:21;;;;;;;86.07;37.90;;;3.40;99.90;;;;;;2613633;54;20430;-75
2023/01/26 19:14:46;;;;;;;72.27;34.17;;;3.30;99.90;;;;;;2614371;47;20438;-75
2023/01/26 19:20:34;;;;;;;89.27;37.53;;;3.30;99.90;;;;;;2615499;39;20549;-76
2023/01/26 19:26:26;;;;;;;71.10;33.20;;;3.30;99.90;;;;;;2616270;54;20154;-75
2023/01/26 19:32:14;;;;;;;68.73;31.27;;;3.30;99.90;;;;;;2614855;54;20391;-76
2023/01/26 19:38:02;;;;;;;61.63;31.10;;;3.40;99.90;;;;;;2616276;39;20503;-75
2023/01/26 19:43:50;;;;;;;53.67;30.50;;;3.40;99.90;;;;;;2615644;54;20725;-74
2023/01/26 19:49:37;;;;;;;55.03;30.27;;;3.50;99.90;;;;;;2616467;39;20793;-75
2023/01/26 19:55:25;;;;;;;60.33;30.80;;;3.50;99.90;;;;;;2615678;54;21094;-76
2023/01/26 20:01:13;;;;;;;55.63;30.50;;;3.40;99.90;;;;;;2616076;54;20123;-75
2023/01/26 20:07:04;;;;;;;55.00;28.83;;;3.40;99.90;;;;;;2615951;54;20126;-76
2023/01/26 20:16:51;;;;;;;50.97;28.40;;;3.50;99.90;;;;;;2616176;54;20379;-76
2023/01/26 20:22:41;;;;;;;47.73;29.80;;;3.50;99.90;;;;;;2616032;54;20370;-76
2023/01/26 20:28:29;;;;;;;59.67;33.00;;;3.60;99.90;;;;;;2615721;54;20398;-75
2023/01/26 20:34:19;;;;;;;46.97;29.73;;;3.50;99.90;;;;;;2615939;54;20952;-75
2023/01/26 20:40:08;;;;;;;51.70;27.20;;;3.60;99.90;;;;;;2615846;54;20366;-74
2023/01/26 20:45:55;;;;;;;53.03;29.00;;;3.60;99.90;;;;;;2615043;54;20396;-76
2023/01/26 20:51:44;;;;;;;45.77;27.27;;;3.70;99.90;;;;;;2615968;54;20906;-77
2023/01/26 20:57:32;;;;;;;45.63;27.73;;;3.70;99.90;;;;;;2615534;54;20382;-74
2023/01/26 21:03:20;;;;;;;29.97;20.90;;;3.70;99.90;;;;;;2615219;54;20150;-74
2023/01/26 21:09:08;;;;;;;39.60;22.73;;;3.60;99.90;;;;;;2615820;54;20146;-75
2023/01/26 21:12:19;;;;;;;46.13;20.70;;;3.60;99.90;;;;;;2615076;47;20403;-74
2023/01/26 21:14:45;;;;;;;34.70;22.30;;;3.60;99.90;;;;;;2615602;54;20399;-74
2023/01/26 21:20:33;;;;;;;35.87;18.63;;;3.80;99.90;;;;;;2616476;39;20484;-75
2023/01/26 21:26:26;;;;;;;27.00;12.87;;;3.90;99.90;;;;;;2616442;54;20170;-74
2023/01/26 21:32:14;;;;;;;32.97;11.37;;;4.00;99.90;;;;;;2616478;54;20399;-74
2023/01/26 21:38:02;;;;;;;16.53;9.90;;;4.00;99.90;;;;;;2616579;54;20403;-75
2023/01/26 21:43:54;;;;;;;17.87;9.30;;;4.10;99.90;;;;;;2616459;39;20400;-75
2023/01/26 21:49:42;;;;;;;21.40;11.30;;;4.00;99.90;;;;;;2616102;54;20916;-75
2023/01/26 21:55:30;;;;;;;14.50;9.57;;;4.10;99.90;;;;;;2615465;46;20150;-76
2023/01/26 22:01:18;;;;;;;25.17;11.00;;;4.10;99.90;;;;;;2613988;54;20121;-74
2023/01/26 22:07:05;;;;;;;20.77;12.40;;;4.10;99.90;;;;;;2615304;54;20398;-76
2023/01/26 22:23:15;;;;;;;20.03;10.60;;;4.20;99.90;;;;;;2614820;39;20893;-74
2023/01/26 22:29:04;;;;;;;12.23;8.83;;;4.20;99.90;;;;;;2614150;54;20140;-74
2023/01/26 22:34:51;;;;;;;15.60;9.50;;;4.20;99.90;;;;;;2613322;54;20416;-75
2023/01/26 22:40:38;;;;;;;33.30;12.10;;;4.10;99.90;;;;;;2613488;54;20614;-74
2023/01/26 22:46:27;;;;;;;17.30;10.77;;;4.10;99.90;;;;;;2613016;54;20216;-77
2023/01/26 22:52:14;;;;;;;18.60;12.20;;;4.10;99.90;;;;;;2614679;54;20395;-76
2023/01/26 22:58:03;;;;;;;17.53;11.43;;;4.00;99.90;;;;;;2616182;39;20582;-75
2023/01/26 23:03:54;;;;;;;15.97;11.17;;;4.00;99.90;;;;;;2615975;54;20499;-75
2023/01/26 23:09:41;;;;;;;13.30;9.70;;;4.00;99.90;;;;;;2616496;54;20405;-76
2023/01/26 23:12:21;;;;;;;21.60;10.33;;;4.00;99.90;;;;;;2615779;46;20423;-77
2023/01/26 23:14:47;;;;;;;16.43;10.33;;;4.00;99.90;;;;;;2615872;54;20155;-77
2023/01/26 23:20:35;;;;;;;13.90;9.07;;;4.00;99.90;;;;;;2615912;39;20535;-77
2023/01/26 23:26:22;;;;;;;16.10;9.80;;;4.10;99.90;;;;;;2616244;54;20134;-76
2023/01/26 23:32:10;;;;;;;17.53;9.30;;;4.10;99.90;;;;;;2616264;54;20162;-78
2023/01/26 23:38:00;;;;;;;16.87;9.80;;;4.10;99.90;;;;;;2616040;54;20665;-77
2023/01/26 23:43:47;;;;;;;13.73;10.30;;;4.20;99.90;;;;;;2616700;54;20386;-77
2023/01/26 23:49:35;;;;;;;16.90;10.93;;;4.10;99.90;;;;;;2615542;54;20155;-77
2023/01/26 23:55:23;;;;;;;15.33;10.10;;;4.10;99.90;;;;;;2615697;54;20118;-77
